createdAt,value
2023-01-15T00:01:06.959Z,7.15
2023-01-15T00:03:34.138Z,7.05
2023-01-15T00:06:02.825Z,6.55
2023-01-15T00:08:30.062Z,7.22
2023-01-15T00:10:57.284Z,7.45
2023-01-15T00:13:24.352Z,6.63
2023-01-15T00:15:51.469Z,7.40
2023-01-15T00:18:18.573Z,6.05
2023-01-15T00:20:45.638Z,7.53
2023-01-15T00:23:32.635Z,7.25
2023-01-15T00:26:19.991Z,7.38
2023-01-15T00:28:48.686Z,6.68
2023-01-15T00:31:16.844Z,6.82
2023-01-15T00:33:44.721Z,7.18
2023-01-15T00:36:11.788Z,7.88
2023-01-15T00:38:40.083Z,7.35
2023-01-15T00:41:07.213Z,6.80
2023-01-15T00:43:34.975Z,6.78
2023-01-15T00:46:02.794Z,7.20
2023-01-15T00:48:29.896Z,7.47
2023-01-15T00:50:57.507Z,7.90
2023-01-15T00:53:24.629Z,6.78
2023-01-15T00:55:52.204Z,7.05
2023-01-15T00:58:19.326Z,7.85
2023-01-15T01:00:46.428Z,6.78
2023-01-15T01:03:14.351Z,5.57
2023-01-15T01:05:41.429Z,7.32
2023-01-15T01:08:08.480Z,8.20
2023-01-15T01:10:35.633Z,6.40
2023-01-15T01:13:02.741Z,6.80
2023-01-15T01:15:29.867Z,7.18
2023-01-15T01:17:56.943Z,7.20
2023-01-15T01:20:24.065Z,7.28
2023-01-15T01:22:51.227Z,8.18
2023-01-15T01:25:18.430Z,7.90
2023-01-15T01:27:46.320Z,7.18
2023-01-15T01:30:13.800Z,7.63
2023-01-15T01:32:43.822Z,7.10
2023-01-15T01:35:10.949Z,7.28
2023-01-15T01:37:38.028Z,7.32
2023-01-15T01:40:06.168Z,7.47
2023-01-15T01:42:33.236Z,7.80
2023-01-15T01:45:01.982Z,7.88
2023-01-15T01:47:32.326Z,8.50
2023-01-15T01:50:00.620Z,8.10
2023-01-15T01:52:30.194Z,7.18
2023-01-15T01:54:57.626Z,7.22
2023-01-15T01:57:25.257Z,7.70
2023-01-15T01:59:52.659Z,8.15
2023-01-15T02:02:21.101Z,6.80
2023-01-15T02:04:48.889Z,7.03
2023-01-15T02:07:16.735Z,7.82
2023-01-15T02:09:43.825Z,7.43
2023-01-15T02:12:19.951Z,7.35
2023-01-15T02:15:01.408Z,7.20
2023-01-15T02:17:36.228Z,5.70
2023-01-15T02:20:10.755Z,7.45
2023-01-15T02:22:45.993Z,6.28
2023-01-15T02:25:33.434Z,8.15
2023-01-15T02:28:06.586Z,8.45
2023-01-15T02:30:44.337Z,7.65
2023-01-15T02:33:18.665Z,7.10
2023-01-15T02:35:48.588Z,7.05
2023-01-15T02:38:17.519Z,6.75
2023-01-15T02:40:50.493Z,7.82
2023-01-15T02:43:21.471Z,8.07
2023-01-15T02:45:50.334Z,7.55
2023-01-15T02:48:19.588Z,7.30
2023-01-15T02:50:50.823Z,6.80
2023-01-15T02:53:21.153Z,7.13
2023-01-15T02:55:50.458Z,8.02
2023-01-15T03:00:50.079Z,5.95
2023-01-15T03:03:22.291Z,7.22
2023-01-15T03:05:54.650Z,6.80
2023-01-15T03:10:53.642Z,6.70
2023-01-15T03:16:16.016Z,5.10
2023-01-15T03:18:46.581Z,6.47
2023-01-15T03:21:16.503Z,7.05
2023-01-15T03:23:46.573Z,5.30
2023-01-15T03:26:13.976Z,7.43
2023-01-15T03:28:43.556Z,7.43
2023-01-15T03:31:11.202Z,8.85
2023-01-15T03:33:38.810Z,7.07
2023-01-15T03:36:13.111Z,6.65
2023-01-15T03:41:30.576Z,7.50
2023-01-15T03:44:05.269Z,7.68
2023-01-15T03:46:53.216Z,6.25
2023-01-15T03:57:22.748Z,7.35
2023-01-15T03:59:53.733Z,7.28
2023-01-15T04:02:22.213Z,7.63
2023-01-15T04:04:51.169Z,7.00
2023-01-15T04:07:19.865Z,6.95
2023-01-15T04:09:47.852Z,7.45
2023-01-15T04:12:15.001Z,6.93
2023-01-15T04:14:46.372Z,6.95
2023-01-15T04:17:18.187Z,7.93
2023-01-15T04:19:45.295Z,6.57
2023-01-15T04:22:13.416Z,7.50
2023-01-15T04:24:40.563Z,6.80
2023-01-15T04:27:07.709Z,7.53
2023-01-15T04:29:34.811Z,6.78
2023-01-15T04:32:02.936Z,6.68
2023-01-15T04:34:30.167Z,6.95
2023-01-15T04:36:57.379Z,6.72
2023-01-15T04:39:24.453Z,6.65
2023-01-15T04:42:11.449Z,7.22
2023-01-15T04:44:38.761Z,7.00
2023-01-15T04:47:05.978Z,6.28
2023-01-15T04:49:33.959Z,6.60
2023-01-15T04:52:01.067Z,6.35
2023-01-15T04:54:28.387Z,7.15
2023-01-15T04:56:55.545Z,6.70
2023-01-15T04:59:24.278Z,7.78
2023-01-15T05:02:02.993Z,7.15
2023-01-15T05:04:30.897Z,6.28
2023-01-15T05:06:58.110Z,7.55
2023-01-15T05:09:25.307Z,5.63
2023-01-15T05:11:52.384Z,6.22
2023-01-15T05:14:19.542Z,6.07
2023-01-15T05:16:46.712Z,5.75
2023-01-15T05:19:14.192Z,7.15
2023-01-15T05:21:43.045Z,6.30
2023-01-15T05:24:13.307Z,6.28
2023-01-15T05:26:40.507Z,6.45
2023-01-15T05:29:07.551Z,7.25
2023-01-15T05:31:34.668Z,6.15
2023-01-15T05:34:02.071Z,6.18
2023-01-15T05:36:30.829Z,6.65
2023-01-15T05:39:02.205Z,6.82
2023-01-15T05:41:50.541Z,6.60
2023-01-15T05:44:19.879Z,5.88
2023-01-15T05:46:47.733Z,7.22
2023-01-15T05:49:16.311Z,6.15
2023-01-15T05:51:44.184Z,5.90
2023-01-15T05:54:13.011Z,6.28
2023-01-15T05:56:40.484Z,5.22
2023-01-15T05:59:08.222Z,6.55
2023-01-15T06:01:36.071Z,6.88
2023-01-15T06:04:04.309Z,6.35
2023-01-15T06:06:31.573Z,5.50
2023-01-15T06:08:58.961Z,5.95
2023-01-15T06:11:26.130Z,5.80
2023-01-15T06:13:53.271Z,6.88
2023-01-15T06:16:20.400Z,5.95
2023-01-15T06:18:47.673Z,6.10
2023-01-15T06:21:15.614Z,6.72
2023-01-15T06:23:43.430Z,5.35
2023-01-15T06:26:14.992Z,5.70
2023-01-15T06:28:42.274Z,6.13
2023-01-15T06:31:13.503Z,5.10
2023-01-15T06:33:40.652Z,4.97
2023-01-15T06:36:09.316Z,5.95
2023-01-15T06:38:36.432Z,5.45
2023-01-15T06:41:04.395Z,5.53
2023-01-15T06:43:51.396Z,6.85
2023-01-15T06:46:38.515Z,5.50
2023-01-15T06:49:05.678Z,5.13
2023-01-15T06:51:32.782Z,4.63
2023-01-15T06:53:59.827Z,5.05
2023-01-15T06:56:26.915Z,5.10
2023-01-15T06:58:56.327Z,5.45
2023-01-15T07:01:23.566Z,5.70
2023-01-15T07:03:50.677Z,4.70
2023-01-15T07:06:17.804Z,4.95
2023-01-15T07:08:44.908Z,4.88
2023-01-15T07:11:12.725Z,4.63
2023-01-15T07:13:39.905Z,4.72
2023-01-15T07:16:27.077Z,5.07
2023-01-15T07:18:55.885Z,5.22
2023-01-15T07:21:23.487Z,5.43
2023-01-15T07:23:50.572Z,5.88
2023-01-15T07:26:17.719Z,6.00
2023-01-15T07:28:44.893Z,4.60
2023-01-15T07:31:12.007Z,5.30
2023-01-15T07:33:39.179Z,4.65
2023-01-15T07:36:06.787Z,4.97
2023-01-15T07:38:33.926Z,4.25
2023-01-15T07:41:21.228Z,4.10
2023-01-15T07:44:08.161Z,5.00
2023-01-15T07:46:56.024Z,4.63
2023-01-15T07:49:43.010Z,4.90
2023-01-15T07:52:10.253Z,5.30
2023-01-15T07:54:37.369Z,5.18
2023-01-15T07:57:04.867Z,4.35
2023-01-15T07:59:32.011Z,6.40
2023-01-15T08:01:59.288Z,4.90
2023-01-15T08:04:26.443Z,8.50
2023-01-15T08:06:53.513Z,7.63
2023-01-15T08:09:20.706Z,8.73
2023-01-15T08:12:07.627Z,5.63
2023-01-15T08:14:54.602Z,4.43
2023-01-15T08:17:21.856Z,4.57
2023-01-15T08:19:48.939Z,5.40
2023-01-15T08:22:16.119Z,5.35
2023-01-15T08:24:43.184Z,6.00
2023-01-15T08:27:10.368Z,5.45
2023-01-15T08:29:37.533Z,6.22
2023-01-15T08:32:04.761Z,5.68
2023-01-15T08:34:32.023Z,3.40
2023-01-15T08:37:00.475Z,4.38
2023-01-15T08:39:27.793Z,4.65
2023-01-15T08:41:55.345Z,5.63
2023-01-15T08:44:23.901Z,7.40
2023-01-15T08:46:51.610Z,8.50
2023-01-15T08:49:19.229Z,20.25
2023-01-15T08:51:50.077Z,84.10
2023-01-15T08:54:17.637Z,82.43
2023-01-15T08:56:45.335Z,46.92
2023-01-15T08:59:12.465Z,21.88
2023-01-15T09:01:41.168Z,11.45
2023-01-15T09:04:09.831Z,8.73
2023-01-15T09:06:37.241Z,6.63
2023-01-15T09:09:04.431Z,6.93
2023-01-15T09:11:31.802Z,13.38
2023-01-15T09:13:58.895Z,9.63
2023-01-15T09:16:27.972Z,7.15
2023-01-15T09:18:55.186Z,5.90
2023-01-15T09:21:22.325Z,5.20
2023-01-15T09:23:49.812Z,5.68
2023-01-15T09:26:36.883Z,5.15
2023-01-15T09:29:04.611Z,4.88
2023-01-15T09:31:31.973Z,5.22
2023-01-15T09:33:59.424Z,6.00
2023-01-15T09:36:28.827Z,6.28
2023-01-15T09:38:56.578Z,4.47
2023-01-15T09:41:44.364Z,5.18
2023-01-15T09:44:31.242Z,3.55
2023-01-15T09:47:18.121Z,4.78
2023-01-15T09:50:05.227Z,4.03
2023-01-15T09:52:41.234Z,5.57
2023-01-15T09:55:22.817Z,7.07
2023-01-15T09:57:51.865Z,8.65
2023-01-15T10:00:20.480Z,5.65
2023-01-15T10:02:52.526Z,5.25
2023-01-15T10:05:23.870Z,4.32
2023-01-15T10:10:34.325Z,3.97
2023-01-15T10:13:09.438Z,4.28
2023-01-15T10:15:38.420Z,5.28
2023-01-15T10:18:08.461Z,5.30
2023-01-15T10:25:58.097Z,3.67
2023-01-15T10:28:45.073Z,3.50
2023-01-15T10:31:19.535Z,5.28
2023-01-15T10:33:57.724Z,5.63
2023-01-15T10:36:44.668Z,11.05
2023-01-15T10:39:21.322Z,9.18
2023-01-15T10:47:20.846Z,12.82
2023-01-15T10:49:49.465Z,9.63
2023-01-15T10:52:24.240Z,9.70
2023-01-15T10:54:55.235Z,13.38
2023-01-15T10:57:28.443Z,7.95
2023-01-15T10:59:59.811Z,9.45
2023-01-15T11:02:46.763Z,6.05
2023-01-15T11:05:15.973Z,7.18
2023-01-15T11:08:08.670Z,7.78
2023-01-15T11:10:32.401Z,5.70
2023-01-15T11:13:39.220Z,4.20
2023-01-15T11:16:31.896Z,3.85
2023-01-15T11:19:24.817Z,4.30
2023-01-15T11:21:52.873Z,5.00
2023-01-15T11:24:21.070Z,5.68
2023-01-15T11:26:50.888Z,5.30
2023-01-15T11:29:30.012Z,5.70
2023-01-15T11:31:57.135Z,6.53
2023-01-15T11:34:24.573Z,5.22
2023-01-15T11:37:07.418Z,6.78
2023-01-15T11:39:34.631Z,6.45
2023-01-15T11:42:22.803Z,5.80
2023-01-15T11:45:11.583Z,5.25
2023-01-15T11:47:58.562Z,5.65
2023-01-15T11:50:45.608Z,3.33
2023-01-15T11:53:19.185Z,3.90
2023-01-15T11:55:52.626Z,4.68
2023-01-15T11:58:20.731Z,4.45
2023-01-15T12:00:50.868Z,7.18
2023-01-15T12:03:20.345Z,5.65
2023-01-15T12:05:54.242Z,7.03
2023-01-15T12:08:32.812Z,3.85
2023-01-15T12:11:25.231Z,5.03
2023-01-15T12:14:01.428Z,3.38
2023-01-15T12:16:36.942Z,4.65
2023-01-15T12:19:20.144Z,5.18
2023-01-15T12:22:07.110Z,11.38
2023-01-15T12:24:41.701Z,12.52
2023-01-15T12:29:54.290Z,15.40
2023-01-15T12:32:23.594Z,7.95
2023-01-15T12:34:56.725Z,4.10
2023-01-15T12:37:26.640Z,5.68
2023-01-15T12:39:58.597Z,5.25
2023-01-15T12:42:46.365Z,4.18
2023-01-15T12:45:20.570Z,3.05
2023-01-15T12:47:52.436Z,2.83
2023-01-15T12:50:39.477Z,3.30
2023-01-15T12:53:12.494Z,3.38
2023-01-15T12:55:43.075Z,2.58
2023-01-15T12:58:20.877Z,2.95
2023-01-15T13:00:49.566Z,3.67
2023-01-15T13:03:27.132Z,3.50
2023-01-15T13:05:56.869Z,3.15
2023-01-15T13:11:00.882Z,4.53
2023-01-15T13:13:35.237Z,5.43
2023-01-15T13:16:14.468Z,3.92
2023-01-15T13:18:49.598Z,3.70
2023-01-15T13:21:17.964Z,6.25
2023-01-15T13:26:46.102Z,5.72
2023-01-15T13:34:39.324Z,5.38
2023-01-15T13:37:19.846Z,13.57
2023-01-15T13:39:47.739Z,19.67
2023-01-15T13:42:35.490Z,9.30
2023-01-15T13:45:05.407Z,7.65
2023-01-15T13:47:35.225Z,4.53
2023-01-15T13:50:05.503Z,5.63
2023-01-15T13:52:35.744Z,6.32
2023-01-15T13:57:49.218Z,6.38
2023-01-15T14:00:34.604Z,6.55
2023-01-15T14:03:03.129Z,5.22
2023-01-15T14:05:32.239Z,7.55
2023-01-15T14:08:01.711Z,6.40
2023-01-15T14:13:28.176Z,9.27
2023-01-15T14:16:15.143Z,7.00
2023-01-15T14:24:08.432Z,5.03
2023-01-15T14:26:43.129Z,7.50
2023-01-15T14:29:30.449Z,4.97
2023-01-15T14:34:58.359Z,8.88
2023-01-15T14:37:30.227Z,8.27
2023-01-15T14:40:00.284Z,8.38
2023-01-15T14:42:50.118Z,8.40
2023-01-15T14:45:27.155Z,5.95
2023-01-15T14:47:55.335Z,6.60
2023-01-15T14:50:39.967Z,7.22
2023-01-15T14:53:16.773Z,6.25
2023-01-15T14:58:46.402Z,5.40
2023-01-15T15:01:17.740Z,5.03
2023-01-15T15:03:47.441Z,5.80
2023-01-15T15:06:14.713Z,4.47
2023-01-15T15:08:43.382Z,6.07
2023-01-15T15:11:35.560Z,4.88
2023-01-15T15:14:05.299Z,7.95
2023-01-15T15:16:32.942Z,7.90
2023-01-15T15:19:04.599Z,10.05
2023-01-15T15:21:36.035Z,9.02
2023-01-15T15:26:43.557Z,7.32
2023-01-15T15:31:49.667Z,6.05
2023-01-15T15:34:23.598Z,5.68
2023-01-15T15:36:50.723Z,6.55
2023-01-15T15:39:29.089Z,5.22
2023-01-15T15:45:12.137Z,4.95
2023-01-15T15:48:00.231Z,4.82
2023-01-15T15:50:29.388Z,5.45
2023-01-15T15:52:58.359Z,5.72
2023-01-15T15:55:26.451Z,4.93
2023-01-15T15:57:55.853Z,5.53
2023-01-15T16:00:28.752Z,4.78
2023-01-15T16:02:56.081Z,6.03
2023-01-15T16:05:25.377Z,5.63
2023-01-15T16:07:53.137Z,6.45
2023-01-15T16:10:36.054Z,5.82
2023-01-15T16:13:04.765Z,5.78
2023-01-15T16:15:34.681Z,5.85
2023-01-15T16:18:03.282Z,6.20
2023-01-15T16:20:30.534Z,6.45
2023-01-15T16:22:58.693Z,6.03
2023-01-15T16:25:27.885Z,7.07
2023-01-15T16:27:55.099Z,6.68
2023-01-15T16:30:24.058Z,6.75
2023-01-15T16:32:52.242Z,5.80
2023-01-15T16:35:24.116Z,8.60
2023-01-15T16:37:52.643Z,6.50
2023-01-15T16:45:51.304Z,7.97
2023-01-15T16:51:19.765Z,6.30
2023-01-15T16:53:46.879Z,5.60
2023-01-15T16:56:33.824Z,5.35
2023-01-15T16:59:01.231Z,6.68
2023-01-15T17:01:46.944Z,5.15
2023-01-15T17:07:08.997Z,5.15
2023-01-15T17:09:37.539Z,5.85
2023-01-15T17:12:08.665Z,6.53
2023-01-15T17:14:35.780Z,5.80
2023-01-15T17:17:22.695Z,5.82
2023-01-15T17:19:50.488Z,5.65
2023-01-15T17:22:24.312Z,5.38
2023-01-15T17:24:52.944Z,5.93
2023-01-15T17:27:20.106Z,5.68
2023-01-15T17:29:47.365Z,6.20
2023-01-15T17:32:15.927Z,5.38
2023-01-15T17:34:43.185Z,6.45
2023-01-15T17:37:10.292Z,6.10
2023-01-15T17:39:37.513Z,5.18
2023-01-15T17:42:11.825Z,6.82
2023-01-15T17:44:38.942Z,6.70
2023-01-15T17:47:06.282Z,5.55
2023-01-15T17:49:33.360Z,6.93
2023-01-15T17:52:00.987Z,7.18
2023-01-15T17:54:47.964Z,6.20
2023-01-15T17:57:34.922Z,6.28
2023-01-15T18:00:21.893Z,5.07
2023-01-15T18:03:08.915Z,6.28
2023-01-15T18:05:36.300Z,4.93
2023-01-15T18:08:04.444Z,6.03
2023-01-15T18:10:31.640Z,5.38
2023-01-15T18:12:58.751Z,5.72
2023-01-15T18:15:25.817Z,4.88
2023-01-15T18:17:53.032Z,6.15
2023-01-15T18:20:20.272Z,6.20
2023-01-15T18:22:47.473Z,6.80
2023-01-15T18:25:14.628Z,5.93
2023-01-15T18:27:43.626Z,5.35
2023-01-15T18:30:13.031Z,5.80
2023-01-15T18:32:40.893Z,7.45
2023-01-15T18:35:08.428Z,5.63
2023-01-15T18:37:36.123Z,6.30
2023-01-15T18:40:03.298Z,4.97
2023-01-15T18:42:50.601Z,5.22
2023-01-15T18:45:37.626Z,6.28
2023-01-15T18:48:04.839Z,6.60
2023-01-15T18:50:31.987Z,6.07
2023-01-15T18:52:59.133Z,5.57
2023-01-15T18:55:26.401Z,5.75
2023-01-15T18:57:54.024Z,6.70
2023-01-15T19:00:22.047Z,6.55
2023-01-15T19:02:49.838Z,5.22
2023-01-15T19:05:17.462Z,6.97
2023-01-15T19:07:45.400Z,6.30
2023-01-15T19:10:13.402Z,5.22
2023-01-15T19:12:40.689Z,6.07
2023-01-15T19:15:28.237Z,6.82
2023-01-15T19:18:15.691Z,6.30
2023-01-15T19:20:43.013Z,5.90
2023-01-15T19:23:10.264Z,5.80
2023-01-15T19:25:42.028Z,6.68
2023-01-15T19:28:10.854Z,5.53
2023-01-15T19:30:39.147Z,5.13
2023-01-15T19:33:07.362Z,5.68
2023-01-15T19:35:35.848Z,5.32
2023-01-15T19:38:03.351Z,5.82
2023-01-15T19:40:32.895Z,6.35
2023-01-15T19:43:19.892Z,4.88
2023-01-15T19:46:06.911Z,5.10
2023-01-15T19:48:54.262Z,5.72
2023-01-15T19:51:21.472Z,5.70
2023-01-15T19:53:48.575Z,4.85
2023-01-15T19:56:15.665Z,5.63
2023-01-15T19:58:42.784Z,5.95
2023-01-15T20:01:17.735Z,7.03
2023-01-15T20:03:46.499Z,6.53
2023-01-15T20:06:13.572Z,5.50
2023-01-15T20:08:40.665Z,4.78
2023-01-15T20:11:08.501Z,4.53
2023-01-15T20:13:53.505Z,5.60
2023-01-15T20:16:22.999Z,5.75
2023-01-15T20:18:50.385Z,5.63
2023-01-15T20:21:17.839Z,5.60
2023-01-15T20:23:45.193Z,6.05
2023-01-15T20:26:13.060Z,5.50
2023-01-15T20:28:42.029Z,6.72
2023-01-15T20:31:17.621Z,6.55
2023-01-15T20:33:45.107Z,6.53
2023-01-15T20:36:12.302Z,5.90
2023-01-15T20:38:39.387Z,5.93
2023-01-15T20:41:27.282Z,4.72
2023-01-15T20:44:14.357Z,4.88
2023-01-15T20:46:41.488Z,5.90
2023-01-15T20:49:28.429Z,5.25
2023-01-15T20:51:56.279Z,5.25
2023-01-15T20:54:24.304Z,5.05
2023-01-15T20:56:51.459Z,6.10
2023-01-15T20:59:18.678Z,5.13
2023-01-15T21:01:45.932Z,5.22
2023-01-15T21:04:13.952Z,4.80
2023-01-15T21:06:41.798Z,6.85
2023-01-15T21:09:08.958Z,5.82
2023-01-15T21:11:36.068Z,6.07
2023-01-15T21:14:03.145Z,5.95
2023-01-15T21:16:30.354Z,5.28
2023-01-15T21:19:01.336Z,5.68
2023-01-15T21:21:28.807Z,5.78
2023-01-15T21:23:55.956Z,5.20
2023-01-15T21:26:24.670Z,5.50
2023-01-15T21:28:53.367Z,6.22
2023-01-15T21:31:21.102Z,5.25
2023-01-15T21:33:48.295Z,5.75
2023-01-15T21:36:16.233Z,5.85
2023-01-15T21:38:43.377Z,5.03
2023-01-15T21:41:11.902Z,5.05
2023-01-15T21:43:58.999Z,5.50
2023-01-15T21:46:28.259Z,5.43
2023-01-15T21:48:55.951Z,5.93
2023-01-15T21:51:23.337Z,4.47
2023-01-15T21:53:50.749Z,5.65
2023-01-15T21:56:17.987Z,6.18
2023-01-15T21:58:45.184Z,5.72
2023-01-15T22:01:13.712Z,4.20
2023-01-15T22:03:41.192Z,4.63
2023-01-15T22:06:09.219Z,4.53
2023-01-15T22:08:36.340Z,4.80
2023-01-15T22:11:09.907Z,4.80
2023-01-15T22:13:37.674Z,4.32
2023-01-15T22:16:04.998Z,4.72
2023-01-15T22:18:33.298Z,4.75
2023-01-15T22:21:02.630Z,4.15
2023-01-15T22:23:29.824Z,5.75
2023-01-15T22:25:56.887Z,5.00
2023-01-15T22:28:24.400Z,4.68
2023-01-15T22:30:51.554Z,4.35
2023-01-15T22:33:18.731Z,4.78
2023-01-15T22:35:45.946Z,4.00
2023-01-15T22:38:13.064Z,4.82
2023-01-15T22:40:40.223Z,5.70
2023-01-15T22:43:07.326Z,3.85
2023-01-15T22:45:34.515Z,5.57
2023-01-15T22:48:01.722Z,5.50
2023-01-15T22:50:29.285Z,5.80
2023-01-15T22:52:56.733Z,6.78
2023-01-15T22:55:23.855Z,5.35
2023-01-15T22:57:51.042Z,4.97
2023-01-15T23:00:18.311Z,6.57
2023-01-15T23:03:05.342Z,5.55
2023-01-15T23:05:36.399Z,6.25
2023-01-15T23:08:04.003Z,5.57
2023-01-15T23:10:31.188Z,5.22
2023-01-15T23:12:58.369Z,5.82
2023-01-15T23:15:25.544Z,6.45
2023-01-15T23:17:52.797Z,5.63
2023-01-15T23:20:20.134Z,6.47
2023-01-15T23:22:47.327Z,7.03
2023-01-15T23:25:14.632Z,5.50
2023-01-15T23:27:42.490Z,5.25
2023-01-15T23:30:10.024Z,5.75
2023-01-15T23:32:39.807Z,6.93
2023-01-15T23:35:07.558Z,6.13
2023-01-15T23:37:34.732Z,5.95
2023-01-15T23:40:01.882Z,5.15
2023-01-15T23:42:50.693Z,5.80
2023-01-15T23:45:37.787Z,5.00
2023-01-15T23:48:04.983Z,6.15
2023-01-15T23:50:32.203Z,5.90
2023-01-15T23:52:59.364Z,6.20
2023-01-15T23:55:26.516Z,5.90
2023-01-15T23:57:53.723Z,4.30
